createdAt,value
2023-02-03T00:00:40.221Z,9.30
2023-02-03T00:03:06.539Z,8.17
2023-02-03T00:05:34.435Z,8.83
2023-02-03T00:08:02.450Z,9.20
2023-02-03T00:10:28.659Z,8.77
2023-02-03T00:12:55.613Z,9.10
2023-02-03T00:15:22.567Z,10.83
2023-02-03T00:17:48.817Z,10.27
2023-02-03T00:20:14.967Z,11.43
2023-02-03T00:22:41.036Z,8.50
2023-02-03T00:25:07.308Z,8.13
2023-02-03T00:27:33.428Z,7.90
2023-02-03T00:29:59.610Z,7.90
2023-02-03T00:32:25.837Z,8.80
2023-02-03T00:34:51.935Z,7.20
2023-02-03T00:37:18.046Z,8.77
2023-02-03T00:39:44.107Z,7.63
2023-02-03T00:42:10.169Z,6.40
2023-02-03T00:44:36.321Z,6.83
2023-02-03T00:47:02.404Z,5.70
2023-02-03T00:49:28.487Z,5.40
2023-02-03T00:51:54.564Z,5.77
2023-02-03T00:54:20.684Z,5.40
2023-02-03T00:56:46.752Z,5.30
2023-02-03T00:59:12.837Z,5.97
2023-02-03T01:01:38.944Z,5.07
2023-02-03T01:04:05.277Z,5.90
2023-02-03T01:06:31.484Z,5.03
2023-02-03T01:08:57.573Z,5.20
2023-02-03T01:11:26.448Z,5.13
2023-02-03T01:13:54.612Z,5.67
2023-02-03T01:16:22.816Z,4.90
2023-02-03T01:18:49.792Z,5.50
2023-02-03T01:21:21.219Z,5.60
2023-02-03T01:23:47.433Z,5.93
2023-02-03T01:26:15.938Z,5.50
2023-02-03T01:28:42.115Z,5.57
2023-02-03T01:31:13.428Z,6.00
2023-02-03T01:33:40.335Z,5.80
2023-02-03T01:36:09.194Z,5.70
2023-02-03T01:38:36.738Z,5.23
2023-02-03T01:41:04.581Z,5.53
2023-02-03T01:43:36.477Z,5.20
2023-02-03T01:46:20.020Z,6.00
2023-02-03T01:48:46.171Z,5.30
2023-02-03T01:51:12.341Z,6.00
2023-02-03T01:53:38.663Z,5.53
2023-02-03T01:56:05.553Z,5.57
2023-02-03T01:58:33.349Z,5.53
2023-02-03T02:00:59.491Z,6.10
2023-02-03T02:03:31.224Z,5.83
2023-02-03T02:06:04.191Z,5.70
2023-02-03T02:08:30.981Z,5.90
2023-02-03T02:10:58.667Z,6.80
2023-02-03T02:13:25.083Z,6.37
2023-02-03T02:16:11.919Z,6.67
2023-02-03T02:18:45.680Z,6.80
2023-02-03T02:21:17.224Z,7.50
2023-02-03T02:23:49.363Z,7.00
2023-02-03T02:26:18.378Z,7.77
2023-02-03T02:29:10.573Z,6.70
2023-02-03T02:31:55.441Z,7.77
2023-02-03T02:34:37.116Z,6.87
2023-02-03T02:37:23.611Z,7.07
2023-02-03T02:40:01.403Z,8.30
2023-02-03T02:42:51.117Z,7.33
2023-02-03T02:45:23.216Z,8.20
2023-02-03T02:47:50.277Z,7.53
2023-02-03T02:50:22.212Z,8.33
2023-02-03T02:52:49.447Z,8.00
2023-02-03T02:55:24.084Z,7.87
2023-02-03T02:57:51.800Z,7.00
2023-02-03T03:00:18.142Z,8.03
2023-02-03T03:02:44.479Z,7.63
2023-02-03T03:05:11.519Z,7.70
2023-02-03T03:07:54.612Z,7.30
2023-02-03T03:10:24.047Z,6.70
2023-02-03T03:12:54.597Z,6.30
2023-02-03T03:15:23.669Z,7.00
2023-02-03T03:18:00.918Z,6.27
2023-02-03T03:20:27.466Z,6.00
2023-02-03T03:22:58.325Z,6.47
2023-02-03T03:25:29.728Z,6.27
2023-02-03T03:27:58.871Z,6.40
2023-02-03T03:30:27.650Z,5.80
2023-02-03T03:32:54.519Z,5.90
2023-02-03T03:35:20.661Z,5.10
2023-02-03T03:37:58.171Z,4.37
2023-02-03T03:40:32.373Z,4.40
2023-02-03T03:43:01.833Z,4.40
2023-02-03T03:45:32.436Z,4.70
2023-02-03T03:48:09.176Z,4.00
2023-02-03T03:50:38.972Z,4.20
2023-02-03T03:53:05.463Z,4.70
2023-02-03T03:55:33.720Z,4.60
2023-02-03T03:58:05.569Z,4.70
2023-02-03T04:00:34.208Z,4.10
2023-02-03T04:03:21.804Z,4.57
2023-02-03T04:05:47.988Z,4.40
2023-02-03T04:08:14.114Z,4.53
2023-02-03T04:10:41.845Z,4.10
2023-02-03T04:13:09.242Z,4.57
2023-02-03T04:15:35.961Z,4.60
2023-02-03T04:18:02.611Z,4.13
2023-02-03T04:20:30.337Z,4.70
2023-02-03T04:22:56.691Z,4.37
2023-02-03T04:25:23.267Z,4.43
2023-02-03T04:27:49.701Z,4.30
2023-02-03T04:30:17.676Z,4.20
2023-02-03T04:32:45.001Z,4.07
2023-02-03T04:35:11.418Z,4.30
2023-02-03T04:37:37.576Z,4.03
2023-02-03T04:40:04.293Z,4.33
2023-02-03T04:42:30.419Z,4.63
2023-02-03T04:44:56.540Z,4.60
2023-02-03T04:47:22.683Z,4.23
2023-02-03T04:49:48.743Z,3.90
2023-02-03T04:52:14.963Z,4.40
2023-02-03T04:54:41.068Z,4.30
2023-02-03T04:57:07.227Z,4.57
2023-02-03T04:59:33.286Z,5.13
2023-02-03T05:02:03.328Z,3.90
2023-02-03T05:04:29.666Z,4.40
2023-02-03T05:06:56.791Z,4.60
2023-02-03T05:09:26.912Z,4.10
2023-02-03T05:11:53.125Z,4.53
2023-02-03T05:14:19.390Z,3.80
2023-02-03T05:16:46.410Z,4.00
2023-02-03T05:19:13.022Z,3.80
2023-02-03T05:21:39.183Z,3.93
2023-02-03T05:24:07.159Z,3.47
2023-02-03T05:26:34.406Z,3.80
2023-02-03T05:29:00.727Z,4.10
2023-02-03T05:31:27.171Z,4.03
2023-02-03T05:33:53.256Z,2.87
2023-02-03T05:36:19.413Z,2.90
2023-02-03T05:38:45.546Z,2.87
2023-02-03T05:41:30.530Z,2.50
2023-02-03T05:43:56.650Z,2.60
2023-02-03T05:46:22.815Z,2.63
2023-02-03T05:48:48.951Z,3.00
2023-02-03T05:51:15.006Z,2.87
2023-02-03T05:53:41.070Z,3.00
2023-02-03T05:56:07.177Z,3.10
2023-02-03T05:58:33.281Z,7.27
2023-02-03T06:00:59.349Z,3.80
2023-02-03T06:03:25.504Z,3.33
2023-02-03T06:05:51.666Z,3.10
2023-02-03T06:08:17.742Z,3.00
2023-02-03T06:10:43.860Z,3.80
2023-02-03T06:13:11.570Z,3.10
2023-02-03T06:15:38.291Z,3.50
2023-02-03T06:18:04.417Z,4.03
2023-02-03T06:20:30.778Z,4.10
2023-02-03T06:22:56.878Z,3.50
2023-02-03T06:25:23.611Z,3.73
2023-02-03T06:27:50.313Z,3.90
2023-02-03T06:30:16.832Z,3.37
2023-02-03T06:32:42.944Z,3.20
2023-02-03T06:35:09.224Z,2.83
2023-02-03T06:37:35.591Z,2.77
2023-02-03T06:40:03.663Z,2.70
2023-02-03T06:42:30.187Z,2.63
2023-02-03T06:44:56.282Z,2.70
2023-02-03T06:47:22.435Z,2.87
2023-02-03T06:49:48.485Z,2.20
2023-02-03T06:52:14.896Z,2.50
2023-02-03T06:54:41.244Z,2.80
2023-02-03T06:57:07.409Z,3.00
2023-02-03T06:59:33.553Z,2.67
2023-02-03T07:01:59.589Z,3.17
2023-02-03T07:04:29.357Z,3.43
2023-02-03T07:06:56.768Z,2.60
2023-02-03T07:09:23.176Z,2.43
2023-02-03T07:11:49.429Z,2.60
2023-02-03T07:14:15.525Z,2.70
2023-02-03T07:16:41.619Z,3.90
2023-02-03T07:19:07.684Z,3.10
2023-02-03T07:21:33.750Z,2.50
2023-02-03T07:24:01.619Z,3.20
2023-02-03T07:26:28.126Z,4.53
2023-02-03T07:28:54.302Z,3.43
2023-02-03T07:31:21.136Z,2.93
2023-02-03T07:33:47.438Z,3.27
2023-02-03T07:36:13.522Z,3.50
2023-02-03T07:38:39.597Z,3.10
2023-02-03T07:41:06.232Z,3.20
2023-02-03T07:43:32.327Z,3.10
2023-02-03T07:45:58.949Z,3.30
2023-02-03T07:48:25.007Z,3.30
2023-02-03T07:50:52.146Z,2.60
2023-02-03T07:53:18.649Z,3.27
2023-02-03T07:55:44.729Z,2.90
2023-02-03T07:58:10.980Z,2.50
2023-02-03T08:00:37.103Z,2.50
2023-02-03T08:03:03.660Z,2.33
2023-02-03T08:05:29.787Z,2.40
2023-02-03T08:07:56.795Z,2.30
2023-02-03T08:10:23.142Z,2.17
2023-02-03T08:12:52.710Z,2.50
2023-02-03T08:15:18.922Z,2.37
2023-02-03T08:17:45.629Z,2.03
2023-02-03T08:20:12.096Z,1.90
2023-02-03T08:22:38.155Z,1.77
2023-02-03T08:25:04.582Z,1.60
2023-02-03T08:27:31.341Z,1.70
2023-02-03T08:29:57.485Z,1.20
2023-02-03T08:32:24.269Z,1.63
2023-02-03T08:34:51.271Z,1.50
2023-02-03T08:37:19.936Z,1.50
2023-02-03T08:39:46.170Z,1.90
2023-02-03T08:42:12.342Z,1.57
2023-02-03T08:44:38.458Z,1.20
2023-02-03T08:47:05.581Z,1.20
2023-02-03T08:49:31.798Z,1.27
2023-02-03T08:51:58.257Z,1.40
2023-02-03T08:54:24.942Z,1.50
2023-02-03T08:56:51.211Z,1.20
2023-02-03T08:59:17.567Z,1.10
2023-02-03T09:01:45.162Z,1.00
2023-02-03T09:04:23.671Z,0.87
2023-02-03T09:06:53.857Z,0.93
2023-02-03T09:09:20.990Z,1.20
2023-02-03T09:11:47.227Z,1.20
2023-02-03T09:14:13.495Z,1.00
2023-02-03T09:16:39.745Z,1.17
2023-02-03T09:19:06.241Z,1.17
2023-02-03T09:21:36.043Z,0.90
2023-02-03T09:24:08.192Z,1.20
2023-02-03T09:26:34.401Z,1.03
2023-02-03T09:29:00.577Z,1.60
2023-02-03T09:31:26.710Z,1.10
2023-02-03T09:33:52.801Z,1.07
2023-02-03T09:36:18.882Z,1.50
2023-02-03T09:38:44.986Z,1.20
2023-02-03T09:41:13.975Z,1.20
2023-02-03T09:44:01.926Z,1.33
2023-02-03T09:46:32.193Z,1.33
2023-02-03T09:49:12.804Z,1.27
2023-02-03T09:51:48.669Z,1.30
2023-02-03T09:54:42.819Z,1.30
2023-02-03T09:57:15.577Z,1.30
2023-02-03T09:59:41.819Z,1.33
2023-02-03T10:02:24.968Z,1.20
2023-02-03T10:05:35.963Z,1.20
2023-02-03T10:08:11.899Z,1.27
2023-02-03T10:10:49.438Z,1.60
2023-02-03T10:13:25.142Z,1.10
2023-02-03T10:16:03.255Z,0.87
2023-02-03T10:18:33.643Z,1.10
2023-02-03T10:21:02.802Z,1.40
2023-02-03T10:23:38.196Z,1.77
2023-02-03T10:26:09.713Z,1.20
2023-02-03T10:28:38.828Z,1.33
2023-02-03T10:31:13.803Z,2.00
2023-02-03T10:33:40.045Z,1.80
2023-02-03T10:36:22.209Z,3.07
2023-02-03T10:39:10.146Z,2.10
2023-02-03T10:41:36.233Z,2.20
2023-02-03T10:44:05.991Z,1.57
2023-02-03T10:46:35.211Z,1.50
2023-02-03T10:49:01.568Z,1.60
2023-02-03T10:51:31.127Z,1.63
2023-02-03T10:53:58.248Z,1.93
2023-02-03T10:56:26.872Z,1.67
2023-02-03T10:58:55.792Z,1.53
2023-02-03T11:01:25.203Z,1.70
2023-02-03T11:04:00.147Z,1.67
2023-02-03T11:06:26.879Z,2.17
2023-02-03T11:08:53.576Z,2.03
2023-02-03T11:11:20.076Z,1.70
2023-02-03T11:13:48.095Z,2.00
2023-02-03T11:16:17.140Z,3.10
2023-02-03T11:18:58.737Z,1.70
2023-02-03T11:21:33.148Z,1.60
2023-02-03T11:24:06.214Z,2.00
2023-02-03T11:26:35.646Z,1.97
2023-02-03T11:29:03.330Z,2.10
2023-02-03T11:31:32.973Z,2.30
2023-02-03T11:34:19.214Z,2.30
2023-02-03T11:36:45.260Z,2.47
2023-02-03T11:39:18.682Z,2.50
2023-02-03T11:41:46.489Z,2.70
2023-02-03T11:44:18.511Z,2.80
2023-02-03T11:46:47.301Z,2.53
2023-02-03T11:50:10.317Z,3.10
2023-02-03T11:52:58.098Z,3.30
2023-02-03T11:55:31.966Z,3.00
2023-02-03T11:58:09.790Z,3.17
2023-02-03T12:01:03.195Z,4.20
2023-02-03T12:03:51.629Z,2.73
2023-02-03T12:06:27.046Z,2.50
2023-02-03T12:09:08.477Z,3.13
2023-02-03T12:12:02.449Z,2.87
2023-02-03T12:14:48.875Z,2.60
2023-02-03T12:17:33.912Z,3.03
2023-02-03T12:20:04.783Z,2.90
2023-02-03T12:22:47.875Z,2.53
2023-02-03T12:25:38.706Z,2.50
2023-02-03T12:28:36.905Z,2.60
2023-02-03T12:31:28.563Z,2.17
2023-02-03T12:34:05.409Z,2.40
2023-02-03T12:37:04.431Z,2.03
2023-02-03T12:39:53.056Z,1.80
2023-02-03T12:42:24.131Z,2.17
2023-02-03T12:45:00.380Z,1.60
2023-02-03T12:47:35.626Z,2.37
2023-02-03T12:50:40.082Z,2.53
2023-02-03T12:53:15.436Z,3.67
2023-02-03T12:55:45.811Z,2.23
2023-02-03T12:58:21.154Z,2.67
2023-02-03T13:01:01.667Z,2.30
2023-02-03T13:03:51.260Z,2.40
2023-02-03T13:06:25.473Z,1.90
2023-02-03T13:08:57.693Z,1.80
2023-02-03T13:11:29.659Z,1.83
2023-02-03T13:14:01.496Z,2.00
2023-02-03T13:16:38.667Z,1.43
2023-02-03T13:19:16.925Z,1.53
2023-02-03T13:21:43.312Z,1.30
2023-02-03T13:24:10.541Z,1.00
2023-02-03T13:26:49.190Z,0.80
2023-02-03T13:29:52.023Z,0.70
2023-02-03T13:32:27.113Z,0.83
2023-02-03T13:35:08.358Z,1.30
2023-02-03T13:37:46.683Z,1.37
2023-02-03T13:40:21.592Z,1.37
2023-02-03T13:42:52.990Z,2.60
2023-02-03T13:45:25.998Z,2.70
2023-02-03T13:47:55.342Z,3.50
2023-02-03T13:50:25.172Z,2.47
2023-02-03T13:53:09.053Z,2.97
2023-02-03T13:55:40.458Z,2.87
2023-02-03T13:58:38.345Z,3.30
2023-02-03T14:01:07.265Z,3.23
2023-02-03T14:03:36.397Z,2.40
2023-02-03T14:06:02.928Z,2.90
2023-02-03T14:08:28.972Z,3.30
2023-02-03T14:11:32.683Z,2.80
2023-02-03T14:14:07.823Z,2.47
2023-02-03T14:16:37.712Z,4.23
2023-02-03T14:19:05.398Z,2.93
2023-02-03T14:21:48.883Z,3.33
2023-02-03T14:24:15.500Z,3.20
2023-02-03T14:26:47.693Z,3.43
2023-02-03T14:29:28.819Z,2.43
2023-02-03T14:32:03.079Z,2.20
2023-02-03T14:34:31.920Z,3.40
2023-02-03T14:37:08.539Z,2.97
2023-02-03T14:39:43.161Z,3.37
2023-02-03T14:42:18.929Z,3.10
2023-02-03T14:44:47.994Z,2.87
2023-02-03T14:47:33.335Z,2.90
2023-02-03T14:50:23.687Z,3.00
2023-02-03T14:53:12.347Z,3.10
2023-02-03T14:56:00.211Z,3.47
2023-02-03T14:58:33.354Z,3.43
2023-02-03T15:01:04.068Z,3.00
2023-02-03T15:03:30.616Z,3.20
2023-02-03T15:05:57.895Z,2.67
2023-02-03T15:08:35.828Z,4.40
2023-02-03T15:11:37.911Z,3.50
2023-02-03T15:14:19.518Z,2.90
2023-02-03T15:16:48.113Z,3.00
2023-02-03T15:19:19.069Z,2.27
2023-02-03T15:21:45.815Z,2.73
2023-02-03T15:24:14.446Z,2.50
2023-02-03T15:26:52.402Z,3.20
2023-02-03T15:29:28.339Z,2.27
2023-02-03T15:32:18.978Z,3.63
2023-02-03T15:34:48.216Z,3.27
2023-02-03T15:37:18.211Z,2.40
2023-02-03T15:39:57.420Z,2.40
2023-02-03T15:42:28.924Z,2.30
2023-02-03T15:45:07.084Z,2.90
2023-02-03T15:47:44.677Z,2.03
2023-02-03T15:50:26.083Z,2.77
2023-02-03T15:52:55.103Z,3.40
2023-02-03T15:55:32.379Z,2.37
2023-02-03T15:57:58.803Z,2.23
2023-02-03T16:00:29.203Z,2.80
2023-02-03T16:02:57.510Z,2.97
2023-02-03T16:05:27.132Z,2.63
2023-02-03T16:07:53.312Z,3.30
2023-02-03T16:10:28.979Z,2.60
2023-02-03T16:13:20.183Z,3.20
2023-02-03T16:16:13.977Z,3.43
2023-02-03T16:18:40.306Z,3.03
2023-02-03T16:21:31.047Z,2.53
2023-02-03T16:24:01.655Z,3.13
2023-02-03T16:26:29.958Z,3.20
2023-02-03T16:29:15.390Z,3.53
2023-02-03T16:32:03.280Z,2.67
2023-02-03T16:34:48.139Z,3.03
2023-02-03T16:37:42.905Z,4.07
2023-02-03T16:40:33.169Z,2.60
2023-02-03T16:43:17.655Z,2.60
2023-02-03T16:46:02.268Z,2.80
2023-02-03T16:48:47.049Z,2.83
2023-02-03T16:51:15.639Z,2.40
2023-02-03T16:53:47.389Z,2.87
2023-02-03T16:56:13.610Z,3.10
2023-02-03T16:58:39.861Z,2.10
2023-02-03T17:01:07.038Z,3.50
2023-02-03T17:03:34.791Z,3.27
2023-02-03T17:06:03.529Z,2.80
2023-02-03T17:08:29.731Z,3.20
2023-02-03T17:11:02.571Z,2.33
2023-02-03T17:13:28.682Z,2.60
2023-02-03T17:15:54.882Z,2.83
2023-02-03T17:18:21.378Z,3.10
2023-02-03T17:20:48.158Z,2.93
2023-02-03T17:23:15.647Z,3.40
2023-02-03T17:25:44.897Z,4.10
2023-02-03T17:28:12.780Z,3.40
2023-02-03T17:30:39.421Z,3.60
2023-02-03T17:33:11.246Z,3.40
2023-02-03T17:35:39.189Z,3.57
2023-02-03T17:38:05.335Z,3.20
2023-02-03T17:54:14.084Z,2.90
2023-02-03T17:56:40.263Z,3.50
2023-02-03T17:59:06.339Z,5.47
2023-02-03T18:01:32.559Z,3.13
2023-02-03T18:04:04.271Z,3.13
2023-02-03T18:06:32.847Z,3.17
2023-02-03T18:09:01.457Z,3.30
2023-02-03T18:11:29.541Z,3.40
2023-02-03T18:13:55.987Z,3.90
2023-02-03T18:16:27.156Z,2.90
2023-02-03T18:18:53.561Z,3.57
2023-02-03T18:21:21.564Z,3.90
2023-02-03T18:24:05.054Z,2.87
2023-02-03T18:26:35.623Z,3.13
2023-02-03T18:29:05.623Z,3.90
2023-02-03T18:31:32.411Z,2.57
2023-02-03T18:34:02.939Z,3.67
2023-02-03T18:36:29.632Z,4.70
2023-02-03T18:38:55.887Z,6.53
2023-02-03T18:41:24.054Z,3.70
2023-02-03T18:43:51.019Z,3.50
2023-02-03T18:46:26.321Z,3.10
2023-02-03T18:48:53.286Z,3.80
2023-02-03T18:51:20.602Z,3.13
2023-02-03T18:53:48.566Z,2.90
2023-02-03T18:56:16.209Z,2.93
2023-02-03T18:58:42.752Z,3.07
2023-02-03T19:01:09.090Z,4.20
2023-02-03T19:03:35.946Z,4.30
2023-02-03T19:06:08.228Z,2.33
2023-02-03T19:08:34.275Z,3.20
2023-02-03T19:11:00.300Z,3.77
2023-02-03T19:13:26.417Z,4.13
2023-02-03T19:15:52.518Z,2.73
2023-02-03T19:18:18.601Z,2.73
2023-02-03T19:20:44.754Z,1.30
2023-02-03T19:23:11.664Z,2.40
2023-02-03T19:25:38.618Z,2.57
2023-02-03T19:28:05.002Z,2.60
2023-02-03T19:30:32.190Z,3.50
2023-02-03T19:32:58.592Z,3.70
2023-02-03T19:35:24.661Z,3.20
2023-02-03T19:37:50.818Z,2.33
2023-02-03T19:40:16.964Z,3.00
2023-02-03T19:42:43.040Z,2.37
2023-02-03T19:45:09.498Z,2.63
2023-02-03T19:47:35.585Z,3.50
2023-02-03T19:50:01.691Z,2.27
2023-02-03T19:52:27.753Z,2.80
2023-02-03T19:54:55.333Z,2.70
2023-02-03T19:57:21.437Z,3.20
2023-02-03T19:59:47.529Z,2.63
2023-02-03T20:02:15.184Z,2.37
2023-02-03T20:04:43.233Z,3.07
2023-02-03T20:07:10.865Z,3.20
2023-02-03T20:09:36.980Z,2.43
2023-02-03T20:12:03.324Z,3.30
2023-02-03T20:14:29.428Z,3.83
2023-02-03T20:16:55.484Z,2.50
2023-02-03T20:19:21.532Z,3.20
2023-02-03T20:21:47.669Z,2.90
2023-02-03T20:24:13.752Z,3.20
2023-02-03T20:26:39.853Z,3.23
2023-02-03T20:29:06.265Z,5.07
2023-02-03T20:31:32.540Z,2.67
2023-02-03T20:33:58.761Z,2.23
2023-02-03T20:36:24.835Z,2.60
2023-02-03T20:38:51.063Z,3.40
2023-02-03T20:41:18.471Z,3.80
2023-02-03T20:43:45.083Z,2.50
2023-02-03T20:46:12.447Z,4.17
2023-02-03T20:48:38.883Z,1.97
2023-02-03T20:51:16.026Z,2.53
2023-02-03T20:53:43.624Z,3.50
2023-02-03T20:56:15.045Z,2.47
2023-02-03T20:58:42.499Z,3.40
2023-02-03T21:01:17.254Z,3.00
2023-02-03T21:04:02.270Z,2.80
2023-02-03T21:06:30.706Z,3.10
2023-02-03T21:09:20.998Z,2.97
2023-02-03T21:11:47.286Z,3.73
2023-02-03T21:14:19.483Z,3.73
2023-02-03T21:16:47.013Z,3.50
2023-02-03T21:19:32.836Z,2.80
2023-02-03T21:22:02.974Z,3.40
2023-02-03T21:24:31.728Z,2.00
2023-02-03T21:26:59.800Z,3.13
2023-02-03T21:29:34.979Z,3.13
2023-02-03T21:32:01.171Z,2.63
2023-02-03T21:34:28.386Z,2.77
2023-02-03T21:37:01.059Z,2.80
2023-02-03T21:39:30.785Z,2.90
2023-02-03T21:42:04.711Z,3.00
2023-02-03T21:44:33.019Z,4.50
2023-02-03T21:47:11.162Z,3.73
2023-02-03T21:49:37.285Z,2.43
2023-02-03T21:52:03.521Z,3.13
2023-02-03T21:54:32.858Z,3.20
2023-02-03T21:56:59.435Z,2.90
2023-02-03T21:59:29.310Z,3.10
2023-02-03T22:01:57.744Z,3.83
2023-02-03T22:04:29.974Z,2.83
2023-02-03T22:06:56.020Z,3.10
2023-02-03T22:09:23.950Z,4.20
2023-02-03T22:11:50.711Z,2.47
2023-02-03T22:14:17.801Z,2.80
2023-02-03T22:16:44.041Z,3.30
2023-02-03T22:19:10.562Z,3.43
2023-02-03T22:21:36.658Z,4.03
2023-02-03T22:24:02.981Z,3.20
2023-02-03T22:26:29.138Z,3.13
2023-02-03T22:28:55.288Z,2.73
2023-02-03T22:31:22.017Z,3.20
2023-02-03T22:33:48.607Z,2.70
2023-02-03T22:36:15.159Z,3.77
2023-02-03T22:38:41.948Z,2.57
2023-02-03T22:41:13.956Z,2.13
2023-02-03T22:43:45.168Z,3.07
2023-02-03T22:46:16.027Z,3.50
2023-02-03T22:48:46.743Z,3.20
2023-02-03T22:51:17.521Z,2.90
2023-02-03T22:53:52.648Z,2.83
2023-02-03T22:56:23.748Z,3.27
2023-02-03T22:58:54.867Z,3.30
2023-02-03T23:01:25.938Z,3.37
2023-02-03T23:03:56.146Z,3.33
2023-02-03T23:06:27.155Z,3.20
2023-02-03T23:08:57.872Z,3.63
2023-02-03T23:11:31.746Z,3.13
2023-02-03T23:14:01.679Z,2.70
2023-02-03T23:16:32.085Z,3.13
2023-02-03T23:19:03.294Z,3.53
2023-02-03T23:21:32.777Z,3.53
2023-02-03T23:24:03.460Z,3.30
2023-02-03T23:26:33.927Z,3.73
2023-02-03T23:29:07.799Z,3.30
2023-02-03T23:31:38.989Z,3.70
2023-02-03T23:34:26.473Z,3.80
2023-02-03T23:36:59.064Z,2.50
2023-02-03T23:39:25.127Z,3.93
2023-02-03T23:41:51.289Z,4.30
2023-02-03T23:44:17.491Z,3.23
2023-02-03T23:46:49.577Z,4.50
2023-02-03T23:49:16.116Z,4.40
2023-02-03T23:51:46.407Z,3.40
2023-02-03T23:54:16.542Z,3.20
2023-02-03T23:56:48.142Z,3.40
2023-02-03T23:59:18.875Z,4.03
